Time;durP1;ratioP1;P1;durP2;ratioP2;P2;SDS_P1;SDS_P2;PMS_P1;PMS_P2;Temp;Humidity;BMP_temperature;BMP_pressure;BME280_temperature;BME280_humidity;BME280_pressure;Samples;Min_cycle;Max_cycle;Signal;HPM_P1;HPM_P2
2022/03/31 00:00:56;;;;;;;;;;;;;;;4.93;66.64;100152.28;4420893;32;19984;-69
2022/03/31 00:03:22;;;;;;;;;;;;;;;5.05;66.23;100147.00;4420144;32;19984;-69
2022/03/31 00:05:48;;;;;;;;;;;;;;;5.19;66.03;100146.03;4419659;32;19988;-69
2022/03/31 00:08:16;;;;;;;;;;;;;;;5.20;66.08;100151.22;4423671;32;19978;-69
2022/03/31 00:10:43;;;;;;;;;;;;;;;5.32;65.99;100142.28;4423782;32;20330;-69
2022/03/31 00:13:12;;;;;;;;;;;;;;;5.19;65.20;100144.03;4423590;32;20355;-69
2022/03/31 00:15:38;;;;;;;;;;;;;;;5.04;65.91;100137.06;4424020;32;19963;-69
2022/03/31 00:18:04;;;;;;;;;;;;;;;5.00;65.59;100133.50;4425279;32;19985;-69
2022/03/31 00:23:37;;;;;;;;;;;;;;;4.87;66.16;100140.81;4422139;32;19949;-69
2022/03/31 00:26:03;;;;;;;;;;;;;;;4.47;67.40;100138.81;4422524;32;19972;-69
2022/03/31 00:28:28;;;;;;;;;;;;;;;4.63;67.13;100144.63;4424748;32;20018;-69
2022/03/31 00:30:54;;;;;;;;;;;;;;;4.58;68.00;100145.09;4422821;32;20441;-69
2022/03/31 00:33:20;;;;;;;;;;;;;;;4.62;67.65;100143.06;4422764;32;20472;-69
2022/03/31 00:35:45;;;;;;;;;;;;;;;4.50;67.81;100145.56;4425041;32;20404;-69
2022/03/31 00:38:12;;;;;;;;;;;;;;;4.52;67.98;100146.75;4424913;32;20021;-69
2022/03/31 00:40:38;;;;;;;;;;;;;;;4.44;68.10;100142.44;4422811;32;19968;-69
2022/03/31 00:43:04;;;;;;;;;;;;;;;4.43;68.24;100154.78;4422144;32;19993;-69
2022/03/31 00:45:46;;;;;;;;;;;;;;;4.15;68.87;100143.88;4421436;32;19968;-69
2022/03/31 00:48:13;;;;;;;;;;;;;;;4.24;67.97;100147.00;4410680;32;20003;-69
2022/03/31 00:50:39;;;;;;;;;;;;;;;4.24;68.32;100160.94;4424201;32;20009;-69
2022/03/31 00:53:04;;;;;;;;;;;;;;;4.02;69.21;100163.06;4421882;32;20502;-69
2022/03/31 00:55:30;;;;;;;;;;;;;;;4.23;68.78;100155.75;4425899;32;19972;-69
2022/03/31 00:57:56;;;;;;;;;;;;;;;4.26;68.61;100158.50;4424745;32;20001;-69
2022/03/31 01:00:22;;;;;;;;;;;;;;;4.18;69.07;100164.53;4417897;32;20385;-69
2022/03/31 01:02:48;;;;;;;;;;;;;;;4.25;68.28;100164.47;4422586;32;19980;-69
2022/03/31 01:05:15;;;;;;;;;;;;;;;4.18;68.37;100158.97;4423022;32;19997;-69
2022/03/31 01:07:41;;;;;;;;;;;;;;;4.14;68.45;100165.34;4423958;32;20004;-69
2022/03/31 01:10:07;;;;;;;;;;;;;;;4.08;68.62;100158.66;4422392;32;20001;-69
2022/03/31 01:12:34;;;;;;;;;;;;;;;4.01;68.96;100155.13;4419510;32;20417;-69
2022/03/31 01:15:06;;;;;;;;;;;;;;;4.00;68.99;100161.91;4424710;32;19957;-69
2022/03/31 01:17:34;;;;;;;;;;;;;;;3.96;69.12;100152.78;4424065;32;19945;-69
2022/03/31 01:20:00;;;;;;;;;;;;;;;3.92;68.89;100163.13;4423963;32;20005;-69
2022/03/31 01:22:29;;;;;;;;;;;;;;;3.90;69.39;100157.97;4422548;32;20057;-69
2022/03/31 01:24:55;;;;;;;;;;;;;;;3.81;69.31;100168.00;4422947;32;19949;-69
2022/03/31 01:27:20;;;;;;;;;;;;;;;3.78;69.32;100163.22;4424392;32;20276;-69
2022/03/31 01:29:46;;;;;;;;;;;;;;;3.84;69.06;100159.59;4421317;32;19953;-69
2022/03/31 01:32:12;;;;;;;;;;;;;;;3.76;69.78;100157.28;4421743;32;19958;-69
2022/03/31 01:34:37;;;;;;;;;;;;;;;3.81;69.21;100152.06;4423010;32;19976;-69
2022/03/31 01:37:04;;;;;;;;;;;;;;;3.88;68.65;100154.81;4423086;32;19988;-69
2022/03/31 01:39:30;;;;;;;;;;;;;;;3.83;68.83;100146.88;4424644;32;20563;-69
2022/03/31 01:41:55;;;;;;;;;;;;;;;3.74;68.92;100157.69;4423466;32;19997;-69
2022/03/31 01:44:21;;;;;;;;;;;;;;;3.64;69.14;100141.84;4423399;32;20009;-69
2022/03/31 01:46:48;;;;;;;;;;;;;;;3.48;70.07;100151.88;4423305;32;19953;-69
2022/03/31 01:49:13;;;;;;;;;;;;;;;3.48;70.44;100151.88;4400643;32;20123;-69
2022/03/31 01:51:39;;;;;;;;;;;;;;;3.45;69.64;100142.34;4421792;32;19961;-69
2022/03/31 01:54:05;;;;;;;;;;;;;;;3.49;69.94;100142.31;4423107;32;20004;-69
2022/03/31 01:56:31;;;;;;;;;;;;;;;3.45;69.73;100152.69;4422618;32;19990;-69
2022/03/31 01:58:57;;;;;;;;;;;;;;;3.34;69.94;100143.56;4422042;32;19953;-69
2022/03/31 02:01:23;;;;;;;;;;;;;;;3.23;71.23;100148.41;4423856;32;19999;-68
2022/03/31 02:03:48;;;;;;;;;;;;;;;3.38;69.97;100149.94;4422207;32;19953;-68
2022/03/31 02:06:14;;;;;;;;;;;;;;;3.35;70.16;100156.31;4422030;32;19949;-68
2022/03/31 02:08:40;;;;;;;;;;;;;;;3.43;70.20;100147.50;4422630;32;20575;-67
2022/03/31 02:11:05;;;;;;;;;;;;;;;3.34;70.54;100151.91;4422938;32;19957;-67
2022/03/31 02:13:31;;;;;;;;;;;;;;;3.30;70.41;100153.94;4420223;32;20026;-67
2022/03/31 02:15:56;;;;;;;;;;;;;;;3.31;70.36;100149.94;4420102;32;20257;-67
2022/03/31 02:18:22;;;;;;;;;;;;;;;3.20;70.93;100152.78;4410041;32;19958;-67
2022/03/31 02:20:48;;;;;;;;;;;;;;;3.14;71.11;100150.81;4421484;32;19956;-67
2022/03/31 02:23:13;;;;;;;;;;;;;;;3.30;70.66;100140.84;4417709;32;20163;-67
2022/03/31 02:25:39;;;;;;;;;;;;;;;3.33;70.52;100148.38;4421550;32;19965;-67
2022/03/31 02:28:05;;;;;;;;;;;;;;;3.37;70.53;100156.66;4421506;32;19953;-68
2022/03/31 02:30:31;;;;;;;;;;;;;;;3.52;70.45;100155.41;4408096;32;20000;-67
2022/03/31 02:32:58;;;;;;;;;;;;;;;3.49;70.20;100145.91;4420616;32;20026;-67
2022/03/31 02:35:24;;;;;;;;;;;;;;;3.60;70.12;100146.66;4421977;32;19993;-67
2022/03/31 02:37:49;;;;;;;;;;;;;;;3.66;69.66;100147.81;4422821;32;19994;-67
2022/03/31 02:40:15;;;;;;;;;;;;;;;3.59;69.77;100144.28;4420779;32;19953;-68
2022/03/31 02:42:40;;;;;;;;;;;;;;;3.65;69.21;100148.97;4422915;32;20045;-67
2022/03/31 02:45:07;;;;;;;;;;;;;;;3.67;69.43;100148.56;4423835;32;19988;-67
2022/03/31 02:47:35;;;;;;;;;;;;;;;3.60;69.55;100151.41;4419860;32;20379;-68
2022/03/31 02:50:02;;;;;;;;;;;;;;;3.53;69.91;100145.87;4422024;32;20349;-68
2022/03/31 02:55:24;;;;;;;;;;;;;;;3.56;69.49;100136.75;4421806;32;19957;-67
2022/03/31 02:55:29;;;;;;;;;;;;;;;3.57;69.27;100144.69;4423893;32;19997;-68
2022/03/31 02:57:55;;;;;;;;;;;;;;;3.53;69.78;100141.09;4421770;32;20374;-68
2022/03/31 03:00:21;;;;;;;;;;;;;;;3.49;70.01;100137.56;4421091;32;20000;-67
2022/03/31 03:02:47;;;;;;;;;;;;;;;3.57;69.83;100135.53;4420076;32;19964;-67
2022/03/31 03:05:12;;;;;;;;;;;;;;;3.31;70.54;100139.63;4420782;32;19957;-67
2022/03/31 03:07:38;;;;;;;;;;;;;;;3.38;70.49;100136.81;4421606;32;19949;-67
2022/03/31 03:10:04;;;;;;;;;;;;;;;3.40;70.08;100131.63;4420274;32;19960;-67
2022/03/31 03:12:31;;;;;;;;;;;;;;;3.31;70.46;100139.63;4421417;32;19949;-67
2022/03/31 03:14:56;;;;;;;;;;;;;;;3.38;70.44;100128.47;4418457;32;20018;-67
2022/03/31 03:17:22;;;;;;;;;;;;;;;3.45;70.44;100142.34;4419534;32;20003;-67
2022/03/31 03:19:47;;;;;;;;;;;;;;;3.45;70.24;100136.00;4419162;32;20350;-67
2022/03/31 03:22:13;;;;;;;;;;;;;;;3.45;70.19;100138.78;4422150;32;20003;-67
2022/03/31 03:24:38;;;;;;;;;;;;;;;3.36;70.85;100141.19;4420752;32;20004;-67
2022/03/31 03:27:04;;;;;;;;;;;;;;;3.46;70.47;100143.13;4422548;32;20055;-68
2022/03/31 03:29:30;;;;;;;;;;;;;;;3.47;70.71;100142.72;4420641;32;19986;-67
2022/03/31 03:31:55;;;;;;;;;;;;;;;3.42;70.96;100147.91;4421315;32;19997;-67
2022/03/31 03:34:21;;;;;;;;;;;;;;;3.44;70.54;100146.31;4421665;32;19980;-67
2022/03/31 03:36:47;;;;;;;;;;;;;;;3.32;70.67;100149.53;4422686;32;20244;-67
2022/03/31 03:39:12;;;;;;;;;;;;;;;3.29;71.34;100153.16;4421785;32;20346;-67
2022/03/31 03:41:38;;;;;;;;;;;;;;;3.30;71.48;100140.84;4421319;32;19950;-68
2022/03/31 03:44:04;;;;;;;;;;;;;;;3.43;70.66;100143.94;4423433;32;19957;-68
2022/03/31 03:46:29;;;;;;;;;;;;;;;3.43;70.65;100135.59;4426154;32;20011;-68
2022/03/31 03:48:55;;;;;;;;;;;;;;;3.34;70.83;100144.38;4424884;32;20569;-68
2022/03/31 03:51:23;;;;;;;;;;;;;;;3.33;70.78;100148.38;4424320;32;20015;-68
2022/03/31 03:53:48;;;;;;;;;;;;;;;3.41;70.91;100149.13;4424686;32;20303;-68
2022/03/31 03:56:15;;;;;;;;;;;;;;;3.31;71.26;100155.50;4424653;32;19950;-68
2022/03/31 03:58:41;;;;;;;;;;;;;;;3.30;71.26;100160.28;4422856;32;19962;-68
2022/03/31 04:01:06;;;;;;;;;;;;;;;3.28;71.63;100170.25;4421364;32;20360;-68
2022/03/31 04:03:31;;;;;;;;;;;;;;;3.18;72.41;100165.50;4424676;32;19991;-68
2022/03/31 04:05:57;;;;;;;;;;;;;;;3.12;71.54;100173.47;4423068;32;19997;-68
2022/03/31 04:08:23;;;;;;;;;;;;;;;3.24;71.63;100175.81;4425192;32;20027;-68
2022/03/31 04:10:49;;;;;;;;;;;;;;;3.29;71.33;100189.31;4425009;32;19992;-68
2022/03/31 04:13:16;;;;;;;;;;;;;;;3.38;71.05;100184.09;4410334;32;19957;-68
2022/03/31 04:15:42;;;;;;;;;;;;;;;3.41;70.72;100185.28;4421146;32;20465;-68
2022/03/31 04:18:08;;;;;;;;;;;;;;;3.35;71.15;100193.22;4426044;32;20669;-68
2022/03/31 04:20:33;;;;;;;;;;;;;;;3.36;70.88;100197.63;4425168;32;19957;-68
2022/03/31 04:22:59;;;;;;;;;;;;;;;3.44;70.37;100195.59;4421866;32;20004;-68
2022/03/31 04:25:25;;;;;;;;;;;;;;;3.53;70.16;100204.31;4423167;32;19949;-68
2022/03/31 04:27:50;;;;;;;;;;;;;;;3.48;70.60;100197.16;4424959;32;19997;-68
2022/03/31 04:30:20;;;;;;;;;;;;;;;3.58;70.47;100198.31;4423914;32;19961;-68
2022/03/31 04:32:46;;;;;;;;;;;;;;;3.66;70.29;100231.28;4422947;32;19997;-68
2022/03/31 04:35:12;;;;;;;;;;;;;;;3.76;70.87;100232.41;4421903;32;19989;-68
2022/03/31 04:37:38;;;;;;;;;;;;;;;3.75;71.87;100237.16;4426085;32;19945;-68
2022/03/31 04:40:05;;;;;;;;;;;;;;;3.73;72.44;100225.66;4423679;32;20132;-68
2022/03/31 04:42:31;;;;;;;;;;;;;;;3.77;72.52;100228.41;4424204;32;20023;-68
2022/03/31 04:44:57;;;;;;;;;;;;;;;3.69;73.27;100233.22;4422524;32;20291;-68
2022/03/31 04:47:22;;;;;;;;;;;;;;;3.74;73.71;100243.94;4423614;32;19994;-67
2022/03/31 04:49:48;;;;;;;;;;;;;;;3.53;74.51;100229.34;4425309;32;20342;-69
2022/03/31 04:52:15;;;;;;;;;;;;;;;3.77;73.53;100222.84;4423794;32;19968;-69
2022/03/31 04:54:43;;;;;;;;;;;;;;;3.86;73.00;100231.56;4422705;32;19969;-69
2022/03/31 04:57:11;;;;;;;;;;;;;;;3.80;73.49;100222.84;4418670;32;19996;-69
2022/03/31 04:59:37;;;;;;;;;;;;;;;3.80;72.90;100228.41;4424056;32;19968;-68
2022/03/31 05:02:02;;;;;;;;;;;;;;;3.71;72.82;100225.28;4422581;32;20383;-69
2022/03/31 05:04:28;;;;;;;;;;;;;;;3.60;73.10;100232.09;4424130;32;19983;-69
2022/03/31 05:06:54;;;;;;;;;;;;;;;3.56;73.09;100231.31;4426393;32;19995;-69
2022/03/31 05:09:21;;;;;;;;;;;;;;;3.52;73.05;100239.66;4421160;32;19968;-68
2022/03/31 05:11:47;;;;;;;;;;;;;;;3.54;73.02;100230.91;4423218;32;20046;-69
2022/03/31 05:14:13;;;;;;;;;;;;;;;3.51;72.85;100246.44;4421596;32;19966;-69
2022/03/31 05:16:39;;;;;;;;;;;;;;;3.34;73.14;100236.16;4423811;32;19968;-69
2022/03/31 05:19:04;;;;;;;;;;;;;;;3.38;73.06;100250.81;4421620;32;20445;-69
2022/03/31 05:21:30;;;;;;;;;;;;;;;3.32;73.20;100238.53;4423495;32;19968;-69
2022/03/31 05:23:56;;;;;;;;;;;;;;;3.29;73.39;100236.56;4422671;32;19993;-69
2022/03/31 05:26:22;;;;;;;;;;;;;;;3.32;73.74;100244.09;4422503;32;20086;-69
2022/03/31 05:28:47;;;;;;;;;;;;;;;3.35;73.31;100246.06;4424524;32;20038;-69
2022/03/31 05:31:14;;;;;;;;;;;;;;;3.40;73.11;100254.00;4423125;32;20316;-69
2022/03/31 05:33:39;;;;;;;;;;;;;;;3.43;72.48;100255.19;4424763;32;20008;-69
2022/03/31 05:36:05;;;;;;;;;;;;;;;3.33;72.89;100253.22;4425573;32;20035;-69
2022/03/31 05:38:30;;;;;;;;;;;;;;;3.31;72.97;100245.28;4424982;32;20629;-69
2022/03/31 05:40:56;;;;;;;;;;;;;;;3.35;72.62;100248.84;4424336;32;19993;-69
2022/03/31 05:43:22;;;;;;;;;;;;;;;3.26;72.76;100259.62;4421415;32;20032;-69
2022/03/31 05:45:48;;;;;;;;;;;;;;;3.43;72.69;100263.53;4412135;32;21512;-69
2022/03/31 05:48:14;;;;;;;;;;;;;;;3.39;72.39;100276.66;4419526;32;19949;-69
2022/03/31 05:50:39;;;;;;;;;;;;;;;3.45;72.48;100272.28;4423384;32;19957;-69
2022/03/31 05:53:05;;;;;;;;;;;;;;;3.40;71.78;100269.88;4413908;32;19968;-69
2022/03/31 05:55:32;;;;;;;;;;;;;;;3.44;71.68;100274.25;4421877;32;19966;-70
2022/03/31 05:57:58;;;;;;;;;;;;;;;3.37;72.02;100277.06;4421882;32;19988;-69
2022/03/31 06:00:24;;;;;;;;;;;;;;;3.43;71.99;100280.22;4420135;32;19968;-70
2022/03/31 06:02:52;;;;;;;;;;;;;;;3.43;71.42;100283.81;4422271;32;19949;-70
2022/03/31 06:05:19;;;;;;;;;;;;;;;3.43;71.69;100286.59;4422773;32;20010;-69
2022/03/31 06:07:46;;;;;;;;;;;;;;;3.44;71.32;100288.16;4423253;32;19997;-70
2022/03/31 06:10:11;;;;;;;;;;;;;;;3.49;71.27;100293.31;4422571;32;20039;-70
2022/03/31 06:12:37;;;;;;;;;;;;;;;3.52;70.94;100295.31;4425873;32;20010;-70
2022/03/31 06:15:04;;;;;;;;;;;;;;;3.60;70.77;100302.44;4422290;32;19989;-70
2022/03/31 06:17:30;;;;;;;;;;;;;;;3.57;70.70;100302.44;4422565;32;19993;-70
2022/03/31 06:19:55;;;;;;;;;;;;;;;3.51;70.83;100302.06;4423324;32;20001;-70
2022/03/31 06:22:20;;;;;;;;;;;;;;;3.49;70.92;100312.00;4424182;32;19968;-70
2022/03/31 06:24:46;;;;;;;;;;;;;;;3.72;70.64;100313.09;4410120;32;20003;-70
2022/03/31 06:27:12;;;;;;;;;;;;;;;3.75;70.29;100314.31;4423461;32;19992;-70
2022/03/31 06:29:38;;;;;;;;;;;;;;;3.80;70.04;100313.88;4423317;32;19957;-70
2022/03/31 06:32:06;;;;;;;;;;;;;;;3.79;70.37;100329.81;4409724;32;20999;-70
2022/03/31 06:34:32;;;;;;;;;;;;;;;3.98;69.03;100329.34;4419514;32;20001;-70
2022/03/31 06:36:58;;;;;;;;;;;;;;;3.88;68.96;100351.63;4416088;32;19972;-70
2022/03/31 06:39:23;;;;;;;;;;;;;;;4.03;68.92;100364.31;4415871;32;19997;-71
2022/03/31 06:41:49;;;;;;;;;;;;;;;4.12;68.41;100373.03;4421187;32;19999;-70
2022/03/31 06:44:16;;;;;;;;;;;;;;;4.26;67.94;100384.09;4417629;32;20045;-70
2022/03/31 06:46:42;;;;;;;;;;;;;;;4.25;68.96;100390.88;4417021;32;19954;-70
2022/03/31 06:49:08;;;;;;;;;;;;;;;4.33;68.31;100397.19;4412153;32;19990;-70
2022/03/31 06:51:34;;;;;;;;;;;;;;;4.48;68.01;100409.87;4403331;32;19954;-70
2022/03/31 06:54:00;;;;;;;;;;;;;;;4.42;67.57;100409.47;4415404;32;19988;-70
2022/03/31 06:56:27;;;;;;;;;;;;;;;4.61;68.59;100409.00;4417139;32;19984;-70
2022/03/31 06:58:53;;;;;;;;;;;;;;;4.75;68.20;100408.16;4421388;32;20014;-69
2022/03/31 07:01:20;;;;;;;;;;;;;;;4.85;67.43;100418.44;4415900;32;19965;-71
2022/03/31 07:03:46;;;;;;;;;;;;;;;4.85;67.36;100421.22;4404498;32;19961;-71
2022/03/31 07:06:11;;;;;;;;;;;;;;;4.90;68.21;100418.78;4416873;32;20276;-70
2022/03/31 07:08:37;;;;;;;;;;;;;;;4.90;68.18;100423.56;4416279;32;19965;-69
2022/03/31 07:11:03;;;;;;;;;;;;;;;4.70;69.14;100431.66;4416090;32;20020;-70
2022/03/31 07:13:29;;;;;;;;;;;;;;;4.85;69.59;100430.34;4413067;32;20044;-70
2022/03/31 07:15:55;;;;;;;;;;;;;;;4.87;69.14;100429.94;4418465;32;20311;-70
2022/03/31 07:18:21;;;;;;;;;;;;;;;4.64;70.19;100443.63;4409195;32;20004;-69
2022/03/31 07:20:46;;;;;;;;;;;;;;;4.99;70.49;100426.69;4423388;32;20433;-70
2022/03/31 07:23:12;;;;;;;;;;;;;;;5.34;69.39;100434.81;4420095;32;20391;-70
2022/03/31 07:25:38;;;;;;;;;;;;;;;5.45;67.95;100422.34;4423899;32;20422;-70
2022/03/31 07:28:04;;;;;;;;;;;;;;;5.58;67.31;100433.78;4425068;32;19949;-70
2022/03/31 07:30:29;;;;;;;;;;;;;;;5.57;66.98;100419.06;4425889;32;19981;-73
2022/03/31 07:32:56;;;;;;;;;;;;;;;5.24;67.27;100421.72;4421181;32;19985;-71
2022/03/31 07:35:23;;;;;;;;;;;;;;;5.16;67.85;100425.78;4418649;32;20013;-70
2022/03/31 07:37:49;;;;;;;;;;;;;;;5.11;66.56;100423.41;4418584;32;20355;-70
2022/03/31 07:40:15;;;;;;;;;;;;;;;5.21;67.12;100428.91;4397287;32;19992;-70
2022/03/31 07:42:41;;;;;;;;;;;;;;;5.09;66.15;100431.41;4399753;32;20365;-70
2022/03/31 07:45:08;;;;;;;;;;;;;;;5.08;66.34;100441.78;4401473;32;20008;-70
2022/03/31 07:47:34;;;;;;;;;;;;;;;5.06;66.55;100443.38;4418822;32;20817;-70
2022/03/31 07:50:00;;;;;;;;;;;;;;;4.96;66.07;100449.81;4416299;32;19991;-70
2022/03/31 07:52:26;;;;;;;;;;;;;;;5.11;66.64;100451.31;4413773;32;19989;-69
2022/03/31 07:54:52;;;;;;;;;;;;;;;4.99;66.26;100444.22;4417239;32;20004;-69
2022/03/31 07:57:19;;;;;;;;;;;;;;;5.34;66.57;100445.97;4416774;32;19968;-69
2022/03/31 07:59:44;;;;;;;;;;;;;;;5.48;65.72;100443.06;4415581;32;20193;-70
2022/03/31 08:02:10;;;;;;;;;;;;;;;5.25;64.83;100446.41;4413166;32;20005;-70
2022/03/31 08:04:35;;;;;;;;;;;;;;;5.50;65.05;100449.81;4404642;32;20301;-70
2022/03/31 08:07:01;;;;;;;;;;;;;;;5.48;64.79;100459.81;4418761;32;19981;-69
2022/03/31 08:09:28;;;;;;;;;;;;;;;5.59;65.29;100455.72;4415249;32;20005;-69
2022/03/31 08:11:53;;;;;;;;;;;;;;;5.75;65.37;100449.59;4415546;32;20034;-70
2022/03/31 08:14:19;;;;;;;;;;;;;;;5.88;64.55;100448.72;4415866;32;19976;-70
2022/03/31 08:16:51;;;;;;;;;;;;;;;5.74;64.77;100462.75;4417207;32;20046;-70
2022/03/31 08:19:17;;;;;;;;;;;;;;;5.82;64.27;100452.34;4420681;32;19997;-70
2022/03/31 08:21:44;;;;;;;;;;;;;;;6.31;64.25;100457.44;4404902;32;19977;-70
2022/03/31 08:24:11;;;;;;;;;;;;;;;6.42;62.37;100463.69;4419388;32;19976;-70
2022/03/31 08:26:37;;;;;;;;;;;;;;;6.56;61.59;100463.50;4417965;32;19993;-71
2022/03/31 08:29:04;;;;;;;;;;;;;;;6.61;60.91;100459.47;4418144;32;20196;-72
2022/03/31 08:31:30;;;;;;;;;;;;;;;6.95;60.90;100471.41;4414326;32;20400;-71
2022/03/31 08:33:56;;;;;;;;;;;;;;;7.04;59.92;100471.66;4403549;32;19954;-71
2022/03/31 08:36:21;;;;;;;;;;;;;;;7.22;58.87;100475.00;4416830;32;20077;-71
2022/03/31 08:38:47;;;;;;;;;;;;;;;7.41;58.79;100485.50;4413240;32;20041;-71
2022/03/31 08:41:13;;;;;;;;;;;;;;;7.42;58.61;100492.69;4414521;32;20019;-70
2022/03/31 08:43:41;;;;;;;;;;;;;;;7.07;58.53;100496.00;4417564;32;20287;-69
2022/03/31 08:46:09;;;;;;;;;;;;;;;6.79;59.75;100500.00;4418458;32;20251;-70
2022/03/31 08:48:34;;;;;;;;;;;;;;;7.06;60.08;100498.00;4417754;32;19993;-70
2022/03/31 08:51:00;;;;;;;;;;;;;;;7.21;58.22;100502.19;4406867;32;20200;-70
2022/03/31 08:53:25;;;;;;;;;;;;;;;7.46;58.80;100510.25;4409106;32;20004;-70
2022/03/31 08:55:51;;;;;;;;;;;;;;;7.37;57.85;100507.19;4415204;32;20343;-70
2022/03/31 08:58:17;;;;;;;;;;;;;;;7.20;58.13;100508.22;4415203;32;19962;-70
2022/03/31 09:00:43;;;;;;;;;;;;;;;7.03;59.20;100509.25;4405642;32;20016;-70
2022/03/31 09:03:09;;;;;;;;;;;;;;;7.39;59.00;100515.94;4415465;32;19988;-71
2022/03/31 09:05:41;;;;;;;;;;;;;;;7.81;58.52;100509.66;4417561;32;20000;-70
2022/03/31 09:08:10;;;;;;;;;;;;;;;8.27;57.70;100520.09;4414596;32;20030;-69
2022/03/31 09:10:36;;;;;;;;;;;;;;;8.09;55.59;100518.41;4418505;32;19991;-70
2022/03/31 09:13:04;;;;;;;;;;;;;;;8.14;56.41;100525.53;4408370;32;20001;-70
2022/03/31 09:15:30;;;;;;;;;;;;;;;8.14;55.15;100511.50;4411487;32;20115;-71
2022/03/31 09:17:57;;;;;;;;;;;;;;;8.04;56.01;100532.13;4412910;32;19993;-69
2022/03/31 09:20:23;;;;;;;;;;;;;;;7.92;55.59;100527.88;4415255;32;20368;-71
2022/03/31 09:22:50;;;;;;;;;;;;;;;7.88;56.04;100521.56;4410882;32;19989;-69
2022/03/31 09:25:24;;;;;;;;;;;;;;;7.82;54.66;100520.44;4412393;32;19985;-70
2022/03/31 09:27:49;;;;;;;;;;;;;;;7.63;55.58;100509.16;4416266;32;20032;-69
2022/03/31 09:30:15;;;;;;;;;;;;;;;7.68;55.24;100517.09;4412663;32;19946;-69
2022/03/31 09:32:49;;;;;;;;;;;;;;;8.38;55.84;100515.09;4410380;32;19995;-68
2022/03/31 09:35:18;;;;;;;;;;;;;;;8.59;54.90;100520.31;4414917;32;20324;-69
2022/03/31 09:37:45;;;;;;;;;;;;;;;8.94;53.91;100509.16;4410714;32;20086;-70
2022/03/31 09:40:11;;;;;;;;;;;;;;;9.49;52.82;100506.31;4406596;32;20453;-69
2022/03/31 09:42:37;;;;;;;;;;;;;;;10.10;50.74;100526.91;4412757;32;19957;-70
2022/03/31 09:45:03;;;;;;;;;;;;;;;10.44;50.15;100531.25;4412256;32;19997;-69
2022/03/31 09:47:29;;;;;;;;;;;;;;;11.05;46.20;100531.94;4412614;32;19978;-69
2022/03/31 09:49:55;;;;;;;;;;;;;;;11.64;46.05;100524.50;4415445;32;19991;-69
2022/03/31 09:52:22;;;;;;;;;;;;;;;12.26;45.12;100538.97;4411890;32;20018;-69
2022/03/31 09:54:48;;;;;;;;;;;;;;;12.72;42.53;100529.66;4411567;32;19984;-70
2022/03/31 09:57:14;;;;;;;;;;;;;;;12.19;43.02;100519.47;4414870;32;20632;-69
2022/03/31 09:59:41;;;;;;;;;;;;;;;13.32;42.13;100533.91;4410599;32;19976;-68
2022/03/31 10:02:07;;;;;;;;;;;;;;;13.04;41.15;100537.81;4412133;32;20052;-68
2022/03/31 10:04:34;;;;;;;;;;;;;;;12.50;43.18;100542.97;4411064;32;19993;-68
2022/03/31 10:07:00;;;;;;;;;;;;;;;11.71;44.01;100551.66;4402353;32;20016;-69
2022/03/31 10:09:26;;;;;;;;;;;;;;;10.34;46.42;100552.03;4410620;32;20023;-69
2022/03/31 10:11:58;;;;;;;;;;;;;;;10.53;48.21;100563.16;4408051;32;20010;-69
2022/03/31 10:17:02;;;;;;;;;;;;;;;11.44;47.22;100568.16;3943381;32;15847418;-69
2022/03/31 10:19:29;;;;;;;;;;;;;;;11.44;47.22;100568.16;4420052;32;19969;-70
2022/03/31 10:21:56;;;;;;;;;;;;;;;11.56;46.37;100564.59;4419729;32;19990;-72
2022/03/31 10:24:54;;;;;;;;;;;;;;;11.40;45.05;100557.03;4410317;32;19958;-69
2022/03/31 10:27:09;;;;;;;;;;;;;;;10.75;45.62;100563.38;4417071;32;19961;-69
2022/03/31 10:29:36;;;;;;;;;;;;;;;11.27;46.75;100575.16;4420050;32;19973;-69
2022/03/31 10:32:13;;;;;;;;;;;;;;;10.34;44.88;100572.50;4419269;32;19953;-69
2022/03/31 10:34:44;;;;;;;;;;;;;;;10.84;46.31;100569.94;4404841;32;20001;-68
2022/03/31 10:37:10;;;;;;;;;;;;;;;11.32;45.11;100566.91;4410063;32;20018;-69
2022/03/31 10:39:36;;;;;;;;;;;;;;;10.82;45.57;100580.06;4405683;32;20068;-69
2022/03/31 10:42:03;;;;;;;;;;;;;;;10.63;45.76;100578.16;4415750;32;20056;-69
2022/03/31 10:44:29;;;;;;;;;;;;;;;10.47;45.65;100581.00;4416844;32;21089;-70
2022/03/31 10:47:01;;;;;;;;;;;;;;;10.64;45.47;100574.91;4418204;32;20091;-70
2022/03/31 10:49:27;;;;;;;;;;;;;;;10.70;46.90;100575.94;4417703;32;20304;-70
2022/03/31 10:51:53;;;;;;;;;;;;;;;10.34;45.95;100574.53;4416384;32;20011;-70
2022/03/31 10:54:29;;;;;;;;;;;;;;;10.10;46.74;100571.88;4418576;32;20030;-69
2022/03/31 10:57:12;;;;;;;;;;;;;;;9.11;48.10;100566.94;4415229;32;20047;-69
2022/03/31 10:59:38;;;;;;;;;;;;;;;8.53;49.37;100573.28;4416473;32;20205;-70
2022/03/31 11:02:08;;;;;;;;;;;;;;;8.02;51.92;100577.38;4406330;32;20005;-71
2022/03/31 11:04:41;;;;;;;;;;;;;;;7.48;55.33;100586.19;4414134;32;20017;-71
2022/03/31 11:07:12;;;;;;;;;;;;;;;7.59;55.86;100570.84;4413783;32;20331;-71
2022/03/31 11:09:38;;;;;;;;;;;;;;;7.79;54.89;100565.31;4411237;32;19960;-70
2022/03/31 11:12:04;;;;;;;;;;;;;;;8.19;55.23;100567.06;4414784;32;20009;-71
2022/03/31 11:14:29;;;;;;;;;;;;;;;8.95;54.43;100555.63;4405379;32;20004;-71
2022/03/31 11:16:55;;;;;;;;;;;;;;;9.87;53.29;100566.41;4420014;32;19965;-70
2022/03/31 11:19:20;;;;;;;;;;;;;;;10.97;49.78;100555.91;4417060;32;20519;-70
2022/03/31 11:21:46;;;;;;;;;;;;;;;12.33;47.52;100562.09;4415398;32;20367;-70
2022/03/31 11:24:12;;;;;;;;;;;;;;;12.05;43.51;100555.37;4411559;32;20388;-70
2022/03/31 11:26:44;;;;;;;;;;;;;;;12.34;42.89;100554.41;4414001;32;20000;-70
2022/03/31 11:29:11;;;;;;;;;;;;;;;12.19;43.11;100554.12;4408630;32;20424;-70
2022/03/31 11:31:42;;;;;;;;;;;;;;;11.43;42.42;100530.78;4408979;32;19985;-69
2022/03/31 11:34:22;;;;;;;;;;;;;;;11.44;43.29;100571.00;4406473;32;20012;-70
2022/03/31 11:36:48;;;;;;;;;;;;;;;11.03;47.66;100602.78;4395207;32;19976;-69
2022/03/31 11:39:14;;;;;;;;;;;;;;;10.02;51.28;100586.53;4407220;32;20001;-70
2022/03/31 11:41:41;;;;;;;;;;;;;;;8.98;55.92;100588.44;4408562;32;20009;-68
2022/03/31 11:44:07;;;;;;;;;;;;;;;8.93;60.09;100585.38;4409508;32;20343;-69
2022/03/31 11:46:49;;;;;;;;;;;;;;;9.15;57.45;100581.69;4408809;32;20651;-69
2022/03/31 11:54:27;;;;;;;;;;;;;;;11.98;52.13;100574.56;3946668;32;15723633;-68
2022/03/31 11:59:37;;;;;;;;;;;;;;;13.32;48.47;100570.66;3947054;32;15724367;-69
2022/03/31 12:02:18;;;;;;;;;;;;;;;13.32;48.47;100570.66;4417091;32;19965;-69
2022/03/31 12:04:44;;;;;;;;;;;;;;;14.02;47.37;100574.28;4420599;32;20375;-69
2022/03/31 12:07:11;;;;;;;;;;;;;;;13.25;46.71;100580.16;4420446;32;20364;-69
2022/03/31 12:09:38;;;;;;;;;;;;;;;13.38;44.80;100586.53;4422666;32;20060;-69
2022/03/31 12:12:06;;;;;;;;;;;;;;;13.56;43.49;100606.44;4420175;32;19972;-69
2022/03/31 12:14:34;;;;;;;;;;;;;;;12.94;45.28;100586.97;4418612;32;20007;-69
2022/03/31 12:16:59;;;;;;;;;;;;;;;12.42;47.95;100610.16;4418051;32;19955;-69
2022/03/31 12:19:25;;;;;;;;;;;;;;;12.29;49.03;100617.84;4420472;32;20032;-69
2022/03/31 12:21:53;;;;;;;;;;;;;;;12.97;44.69;100609.44;4408791;32;20000;-69
2022/03/31 12:24:20;;;;;;;;;;;;;;;12.76;43.28;100592.47;4418160;32;20279;-70
2022/03/31 12:27:02;;;;;;;;;;;;;;;12.57;41.57;100585.06;4417262;32;20339;-70
2022/03/31 12:29:31;;;;;;;;;;;;;;;13.21;40.36;100584.38;4417209;32;20390;-70
2022/03/31 12:32:06;;;;;;;;;;;;;;;13.77;39.60;100580.16;4416557;32;20052;-70
2022/03/31 12:34:32;;;;;;;;;;;;;;;14.19;37.37;100576.84;4417118;32;20579;-70
2022/03/31 12:36:58;;;;;;;;;;;;;;;15.14;35.54;100587.72;4422277;32;20224;-70
2022/03/31 12:39:23;;;;;;;;;;;;;;;16.64;34.23;100593.84;4417634;32;20232;-70
2022/03/31 12:41:50;;;;;;;;;;;;;;;17.91;31.75;100595.53;4416897;32;19985;-70
2022/03/31 12:44:20;;;;;;;;;;;;;;;18.12;31.69;100603.63;4419395;32;21092;-69
2022/03/31 12:47:01;;;;;;;;;;;;;;;18.91;30.32;100595.72;4416178;32;19957;-70
2022/03/31 12:49:32;;;;;;;;;;;;;;;18.36;30.59;100597.78;4419240;32;20006;-70
2022/03/31 12:51:58;;;;;;;;;;;;;;;18.91;31.25;100595.72;4419812;32;19950;-70
2022/03/31 12:57:00;;;;;;;;;;;;;;;18.33;31.46;100598.78;3946241;32;15721575;-71
2022/03/31 12:59:30;;;;;;;;;;;;;;;18.33;31.46;100598.78;4407406;32;19988;-71